Sarasota, FL

11:35 PM EDT del 26 Marzo 2015 (GMT -0400)
GULF GATE EAST | | Change Station
CLOSE
Current Station
Stazione meteo personale
Location: SARASOTA, FL
Altitudine: 26 ft
Stazioni meteo nelle vicinanze

Alt. 26 ft 27.26 °N, 82.50 °W | Updated 10 seconds ago

Parzialmente nuvoloso
Parzialmente nuvoloso
72.1 °F
Sembra 72.1 °F
N
0.0
Vento Variabile Vento da ENE
Gusts 0.0 mph

Oggi
Massima -- | Minima -- °F
--% Possibilità di precip.
Ieri
Massima -- | Minima -- °F
Precip. -- in
7:27 AM 7:44 PM
Luna crescente, 48% visible
Pressione 29.94 in
Visibilità 10.0 miglia
Nuvole Sereno
Punto di rugiada 69 °F
Umidità 89%
Piovosità 0.00 in
Spessore del manto nevoso Non disponibile.
Raggi UV 0 fuori da 12
Polline 9.10 fuori da 12
Qualità dell'aria Non disponibile.
Flu Activity Non disponibile.
METAR KSRQ 270253Z 01005KT 10SM CLR 21/19 A2994 RMK AO2 WSHFT 0145 SLP137 T02110189 51009

More Conditions Fewer Conditions

Pressione 29.94 in
Visibilità 10.0 miglia
Nuvole Sereno
Punto di rugiada 69 °F
Umidità 89%
Piovosità 0.00 in
Spessore del manto nevoso Non disponibile.
Raggi UV 0 fuori da 12
Polline 9.10 fuori da 12
Qualità dell'aria Non disponibile.
Flu Activity Non disponibile.
METAR KSRQ 270253Z 01005KT 10SM CLR 21/19 A2994 RMK AO2 WSHFT 0145 SLP137 T02110189 51009

More Conditions Fewer Conditions

10-Day Weather Forecast

Almanac

Astronomia

Mar. 26, 2015 Alba Tramonto
Ora attuale
Crepuscolo civile
Crepuscolo nautico
Crepuscolo astronomico
Luna
Estensione della luce visibile
Lunghezza del giorno
Tomorrow will be .
, % of the Moon is Illuminated

Gli estremi di oggi

State Highs State Lows

Community

WunderPhotos

Upload Photos

1,808,697 foto caricate!

WunderBlogs® & News

Nearby

Qualità dell'aria

  Qualità dell'aria Indice AQ Inquinante
Not available.

Profondità neve

Stazione Profondità Altitudine

Attività sismica

Città  Distanza Mag. Data & Ora
Minimo Magnitudo Mostrato è 2.5.

Temperature delle acque costiere

Località Temperatura

Stations

Stazioni meteo nelle vicinanze

Ubicazione della stazione Temp. Raffreddamento del vento Punto di rugiada Umidità Vento Precip. Alt. Aggiornato Tipo